sensor_id;sensor_type;location;lat;lon;timestamp;P1;durP1;ratioP1;P2;durP2;ratioP2
30888;SDS011;51092;50.874;7.024;2023-02-11T00:00:53;49.88;;;28.20;;
30888;SDS011;51092;50.874;7.024;2023-02-11T00:01:55;46.50;;;27.63;;
30888;SDS011;51092;50.874;7.024;2023-02-11T00:02:57;42.90;;;24.85;;
30888;SDS011;51092;50.874;7.024;2023-02-11T00:03:59;43.72;;;27.92;;
30888;SDS011;51092;50.874;7.024;2023-02-11T00:05:02;48.00;;;26.05;;
30888;SDS011;51092;50.874;7.024;2023-02-11T00:06:05;43.97;;;25.20;;
30888;SDS011;51092;50.874;7.024;2023-02-11T00:07:10;46.58;;;28.67;;
30888;SDS011;51092;50.874;7.024;2023-02-11T00:08:11;46.75;;;26.30;;
30888;SDS011;51092;50.874;7.024;2023-02-11T00:09:16;47.70;;;29.20;;
30888;SDS011;51092;50.874;7.024;2023-02-11T00:10:18;48.28;;;28.35;;
30888;SDS011;51092;50.874;7.024;2023-02-11T00:11:22;47.28;;;26.20;;
30888;SDS011;51092;50.874;7.024;2023-02-11T00:12:25;45.08;;;26.70;;
30888;SDS011;51092;50.874;7.024;2023-02-11T00:13:28;44.50;;;27.85;;
30888;SDS011;51092;50.874;7.024;2023-02-11T00:14:30;45.53;;;26.27;;
30888;SDS011;51092;50.874;7.024;2023-02-11T00:15:36;44.50;;;26.65;;
30888;SDS011;51092;50.874;7.024;2023-02-11T00:16:37;45.50;;;26.65;;
30888;SDS011;51092;50.874;7.024;2023-02-11T00:17:40;49.63;;;30.85;;
30888;SDS011;51092;50.874;7.024;2023-02-11T00:18:41;46.10;;;27.25;;
30888;SDS011;51092;50.874;7.024;2023-02-11T00:19:47;48.88;;;29.27;;
30888;SDS011;51092;50.874;7.024;2023-02-11T00:20:49;45.30;;;27.45;;
30888;SDS011;51092;50.874;7.024;2023-02-11T00:21:51;46.33;;;27.85;;
30888;SDS011;51092;50.874;7.024;2023-02-11T00:22:53;48.78;;;26.45;;
30888;SDS011;51092;50.874;7.024;2023-02-11T00:23:56;46.03;;;27.45;;
30888;SDS011;51092;50.874;7.024;2023-02-11T00:24:59;46.65;;;27.42;;
30888;SDS011;51092;50.874;7.024;2023-02-11T00:26:02;45.83;;;25.42;;
30888;SDS011;51092;50.874;7.024;2023-02-11T00:27:05;47.03;;;28.23;;
30888;SDS011;51092;50.874;7.024;2023-02-11T00:28:08;40.75;;;26.48;;
30888;SDS011;51092;50.874;7.024;2023-02-11T00:29:13;47.10;;;26.90;;
30888;SDS011;51092;50.874;7.024;2023-02-11T00:30:16;48.15;;;27.80;;
30888;SDS011;51092;50.874;7.024;2023-02-11T00:31:18;48.20;;;27.33;;
30888;SDS011;51092;50.874;7.024;2023-02-11T00:32:22;48.67;;;27.60;;
30888;SDS011;51092;50.874;7.024;2023-02-11T00:33:23;48.13;;;28.75;;
30888;SDS011;51092;50.874;7.024;2023-02-11T00:34:28;45.72;;;27.55;;
30888;SDS011;51092;50.874;7.024;2023-02-11T00:35:29;51.88;;;27.83;;
30888;SDS011;51092;50.874;7.024;2023-02-11T00:36:31;46.10;;;27.83;;
30888;SDS011;51092;50.874;7.024;2023-02-11T00:37:32;40.50;;;24.63;;
30888;SDS011;51092;50.874;7.024;2023-02-11T00:38:36;53.15;;;28.55;;
30888;SDS011;51092;50.874;7.024;2023-02-11T00:39:37;46.67;;;28.23;;
30888;SDS011;51092;50.874;7.024;2023-02-11T00:40:40;45.22;;;25.88;;
30888;SDS011;51092;50.874;7.024;2023-02-11T00:41:44;40.63;;;25.27;;
30888;SDS011;51092;50.874;7.024;2023-02-11T00:42:51;46.60;;;28.05;;
30888;SDS011;51092;50.874;7.024;2023-02-11T00:43:52;41.38;;;25.83;;
30888;SDS011;51092;50.874;7.024;2023-02-11T00:44:55;47.88;;;25.65;;
30888;SDS011;51092;50.874;7.024;2023-02-11T00:45:56;45.83;;;26.42;;
30888;SDS011;51092;50.874;7.024;2023-02-11T00:46:58;47.78;;;26.50;;
30888;SDS011;51092;50.874;7.024;2023-02-11T00:47:59;43.55;;;25.90;;
30888;SDS011;51092;50.874;7.024;2023-02-11T00:49:01;47.60;;;27.35;;
30888;SDS011;51092;50.874;7.024;2023-02-11T00:50:02;44.13;;;27.50;;
30888;SDS011;51092;50.874;7.024;2023-02-11T00:51:05;37.25;;;25.75;;
30888;SDS011;51092;50.874;7.024;2023-02-11T00:52:07;48.83;;;27.40;;
30888;SDS011;51092;50.874;7.024;2023-02-11T00:53:09;43.60;;;27.45;;
30888;SDS011;51092;50.874;7.024;2023-02-11T00:54:11;46.15;;;26.42;;
30888;SDS011;51092;50.874;7.024;2023-02-11T00:55:14;37.80;;;23.85;;
30888;SDS011;51092;50.874;7.024;2023-02-11T00:56:16;40.65;;;23.20;;
30888;SDS011;51092;50.874;7.024;2023-02-11T00:57:18;37.45;;;23.50;;
30888;SDS011;51092;50.874;7.024;2023-02-11T00:58:21;40.83;;;24.25;;
30888;SDS011;51092;50.874;7.024;2023-02-11T00:59:29;34.00;;;23.23;;
30888;SDS011;51092;50.874;7.024;2023-02-11T01:00:30;40.92;;;22.63;;
30888;SDS011;51092;50.874;7.024;2023-02-11T01:01:33;33.22;;;23.25;;
30888;SDS011;51092;50.874;7.024;2023-02-11T01:02:35;32.17;;;22.35;;
30888;SDS011;51092;50.874;7.024;2023-02-11T01:03:37;32.17;;;23.45;;
30888;SDS011;51092;50.874;7.024;2023-02-11T01:04:39;38.15;;;23.13;;
30888;SDS011;51092;50.874;7.024;2023-02-11T01:05:42;30.13;;;22.52;;
30888;SDS011;51092;50.874;7.024;2023-02-11T01:06:43;35.13;;;21.35;;
30888;SDS011;51092;50.874;7.024;2023-02-11T01:07:46;34.15;;;21.63;;
30888;SDS011;51092;50.874;7.024;2023-02-11T01:08:48;32.78;;;23.10;;
30888;SDS011;51092;50.874;7.024;2023-02-11T01:09:50;37.13;;;22.30;;
30888;SDS011;51092;50.874;7.024;2023-02-11T01:10:54;34.30;;;23.42;;
30888;SDS011;51092;50.874;7.024;2023-02-11T01:11:57;34.33;;;21.42;;
30888;SDS011;51092;50.874;7.024;2023-02-11T01:12:58;34.83;;;22.10;;
30888;SDS011;51092;50.874;7.024;2023-02-11T01:14:02;34.08;;;21.85;;
30888;SDS011;51092;50.874;7.024;2023-02-11T01:15:05;32.13;;;21.85;;
30888;SDS011;51092;50.874;7.024;2023-02-11T01:16:10;32.35;;;20.45;;
30888;SDS011;51092;50.874;7.024;2023-02-11T01:17:11;33.55;;;22.08;;
30888;SDS011;51092;50.874;7.024;2023-02-11T01:18:14;34.47;;;23.65;;
30888;SDS011;51092;50.874;7.024;2023-02-11T01:19:16;33.10;;;22.33;;
30888;SDS011;51092;50.874;7.024;2023-02-11T01:20:20;31.55;;;22.38;;
30888;SDS011;51092;50.874;7.024;2023-02-11T01:21:26;34.90;;;20.50;;
30888;SDS011;51092;50.874;7.024;2023-02-11T01:22:28;33.58;;;22.52;;
30888;SDS011;51092;50.874;7.024;2023-02-11T01:23:30;33.45;;;21.20;;
30888;SDS011;51092;50.874;7.024;2023-02-11T01:24:32;36.38;;;22.40;;
30888;SDS011;51092;50.874;7.024;2023-02-11T01:25:34;37.83;;;23.45;;
30888;SDS011;51092;50.874;7.024;2023-02-11T01:26:36;33.28;;;23.13;;
30888;SDS011;51092;50.874;7.024;2023-02-11T01:27:38;38.80;;;22.85;;
30888;SDS011;51092;50.874;7.024;2023-02-11T01:28:40;34.22;;;22.23;;
30888;SDS011;51092;50.874;7.024;2023-02-11T01:29:44;31.52;;;22.08;;
30888;SDS011;51092;50.874;7.024;2023-02-11T01:30:45;37.88;;;22.65;;
30888;SDS011;51092;50.874;7.024;2023-02-11T01:31:48;29.02;;;20.75;;
30888;SDS011;51092;50.874;7.024;2023-02-11T01:32:49;34.25;;;22.48;;
30888;SDS011;51092;50.874;7.024;2023-02-11T01:33:52;35.35;;;22.38;;
30888;SDS011;51092;50.874;7.024;2023-02-11T01:34:54;36.40;;;22.35;;
30888;SDS011;51092;50.874;7.024;2023-02-11T01:35:59;38.25;;;22.95;;
30888;SDS011;51092;50.874;7.024;2023-02-11T01:37:01;35.42;;;23.10;;
30888;SDS011;51092;50.874;7.024;2023-02-11T01:38:05;34.17;;;22.75;;
30888;SDS011;51092;50.874;7.024;2023-02-11T01:39:07;31.83;;;22.55;;
30888;SDS011;51092;50.874;7.024;2023-02-11T01:40:11;33.75;;;21.98;;
30888;SDS011;51092;50.874;7.024;2023-02-11T01:41:14;35.25;;;24.05;;
30888;SDS011;51092;50.874;7.024;2023-02-11T01:42:17;34.10;;;22.27;;
30888;SDS011;51092;50.874;7.024;2023-02-11T01:43:20;34.70;;;22.58;;
30888;SDS011;51092;50.874;7.024;2023-02-11T01:44:24;39.20;;;24.50;;
30888;SDS011;51092;50.874;7.024;2023-02-11T01:47:25;37.78;;;24.55;;
30888;SDS011;51092;50.874;7.024;2023-02-11T01:48:27;36.80;;;24.92;;
30888;SDS011;51092;50.874;7.024;2023-02-11T01:49:33;34.33;;;24.83;;
30888;SDS011;51092;50.874;7.024;2023-02-11T01:50:38;39.97;;;25.95;;
30888;SDS011;51092;50.874;7.024;2023-02-11T01:51:43;40.28;;;25.85;;
30888;SDS011;51092;50.874;7.024;2023-02-11T01:52:48;40.50;;;26.48;;
30888;SDS011;51092;50.874;7.024;2023-02-11T01:53:49;37.40;;;25.70;;
30888;SDS011;51092;50.874;7.024;2023-02-11T01:55:11;43.40;;;25.65;;
30888;SDS011;51092;50.874;7.024;2023-02-11T01:56:31;39.42;;;27.45;;
30888;SDS011;51092;50.874;7.024;2023-02-11T01:57:56;38.90;;;25.88;;
30888;SDS011;51092;50.874;7.024;2023-02-11T01:59:05;40.15;;;26.45;;
30888;SDS011;51092;50.874;7.024;2023-02-11T02:00:13;40.28;;;27.70;;
30888;SDS011;51092;50.874;7.024;2023-02-11T02:01:22;42.45;;;26.08;;
30888;SDS011;51092;50.874;7.024;2023-02-11T02:02:28;43.65;;;27.33;;
30888;SDS011;51092;50.874;7.024;2023-02-11T02:03:38;43.75;;;29.60;;
30888;SDS011;51092;50.874;7.024;2023-02-11T02:04:45;40.97;;;26.52;;
30888;SDS011;51092;50.874;7.024;2023-02-11T02:05:54;43.28;;;30.38;;
30888;SDS011;51092;50.874;7.024;2023-02-11T02:07:01;39.38;;;26.90;;
30888;SDS011;51092;50.874;7.024;2023-02-11T02:08:08;44.20;;;27.52;;
30888;SDS011;51092;50.874;7.024;2023-02-11T02:09:19;41.85;;;28.13;;
30888;SDS011;51092;50.874;7.024;2023-02-11T02:10:24;38.97;;;28.38;;
30888;SDS011;51092;50.874;7.024;2023-02-11T02:11:28;42.88;;;27.95;;
30888;SDS011;51092;50.874;7.024;2023-02-11T02:12:30;40.17;;;27.00;;
30888;SDS011;51092;50.874;7.024;2023-02-11T02:13:33;42.13;;;29.35;;
30888;SDS011;51092;50.874;7.024;2023-02-11T02:14:37;43.42;;;28.58;;
30888;SDS011;51092;50.874;7.024;2023-02-11T02:15:48;42.17;;;27.75;;
30888;SDS011;51092;50.874;7.024;2023-02-11T02:16:57;43.42;;;27.17;;
30888;SDS011;51092;50.874;7.024;2023-02-11T02:18:00;45.63;;;27.70;;
30888;SDS011;51092;50.874;7.024;2023-02-11T02:19:13;39.00;;;26.80;;
30888;SDS011;51092;50.874;7.024;2023-02-11T02:23:41;37.10;;;24.33;;
30888;SDS011;51092;50.874;7.024;2023-02-11T02:25:03;39.00;;;27.10;;
30888;SDS011;51092;50.874;7.024;2023-02-11T02:26:25;43.60;;;27.23;;
30888;SDS011;51092;50.874;7.024;2023-02-11T02:27:49;38.35;;;24.67;;
30888;SDS011;51092;50.874;7.024;2023-02-11T02:33:32;40.50;;;25.52;;
30888;SDS011;51092;50.874;7.024;2023-02-11T02:34:44;36.25;;;25.17;;
30888;SDS011;51092;50.874;7.024;2023-02-11T02:35:52;37.50;;;25.77;;
30888;SDS011;51092;50.874;7.024;2023-02-11T02:37:07;35.83;;;24.60;;
30888;SDS011;51092;50.874;7.024;2023-02-11T02:38:14;38.00;;;25.42;;
30888;SDS011;51092;50.874;7.024;2023-02-11T02:39:20;40.88;;;25.75;;
30888;SDS011;51092;50.874;7.024;2023-02-11T02:40:26;35.90;;;23.30;;
30888;SDS011;51092;50.874;7.024;2023-02-11T02:41:33;37.47;;;26.02;;
30888;SDS011;51092;50.874;7.024;2023-02-11T02:42:36;40.90;;;26.65;;
30888;SDS011;51092;50.874;7.024;2023-02-11T02:43:43;39.53;;;26.52;;
30888;SDS011;51092;50.874;7.024;2023-02-11T02:44:47;40.00;;;26.88;;
30888;SDS011;51092;50.874;7.024;2023-02-11T02:45:52;40.42;;;25.52;;
30888;SDS011;51092;50.874;7.024;2023-02-11T02:46:54;41.25;;;26.73;;
30888;SDS011;51092;50.874;7.024;2023-02-11T02:47:58;36.60;;;25.48;;
30888;SDS011;51092;50.874;7.024;2023-02-11T02:48:59;42.10;;;27.15;;
30888;SDS011;51092;50.874;7.024;2023-02-11T02:50:01;41.17;;;26.00;;
30888;SDS011;51092;50.874;7.024;2023-02-11T02:51:05;43.47;;;27.30;;
30888;SDS011;51092;50.874;7.024;2023-02-11T02:52:23;37.05;;;25.17;;
30888;SDS011;51092;50.874;7.024;2023-02-11T02:53:35;43.28;;;26.42;;
30888;SDS011;51092;50.874;7.024;2023-02-11T02:56:14;45.13;;;27.58;;
30888;SDS011;51092;50.874;7.024;2023-02-11T02:57:27;47.20;;;29.17;;
30888;SDS011;51092;50.874;7.024;2023-02-11T02:58:39;45.53;;;30.13;;
30888;SDS011;51092;50.874;7.024;2023-02-11T03:00:00;44.05;;;27.33;;
30888;SDS011;51092;50.874;7.024;2023-02-11T03:01:10;44.67;;;28.50;;
30888;SDS011;51092;50.874;7.024;2023-02-11T03:02:21;46.22;;;28.88;;
30888;SDS011;51092;50.874;7.024;2023-02-11T03:03:30;52.58;;;28.50;;
30888;SDS011;51092;50.874;7.024;2023-02-11T03:04:39;43.22;;;27.75;;
30888;SDS011;51092;50.874;7.024;2023-02-11T03:05:47;48.20;;;30.63;;
30888;SDS011;51092;50.874;7.024;2023-02-11T03:06:54;45.55;;;29.63;;
30888;SDS011;51092;50.874;7.024;2023-02-11T03:08:01;50.28;;;31.80;;
30888;SDS011;51092;50.874;7.024;2023-02-11T03:09:12;54.05;;;33.25;;
30888;SDS011;51092;50.874;7.024;2023-02-11T03:10:20;53.70;;;32.33;;
30888;SDS011;51092;50.874;7.024;2023-02-11T03:11:26;49.22;;;32.67;;
30888;SDS011;51092;50.874;7.024;2023-02-11T03:12:29;54.40;;;32.58;;
30888;SDS011;51092;50.874;7.024;2023-02-11T03:13:33;49.22;;;31.30;;
30888;SDS011;51092;50.874;7.024;2023-02-11T03:14:37;56.47;;;32.78;;
30888;SDS011;51092;50.874;7.024;2023-02-11T03:15:42;53.47;;;31.63;;
30888;SDS011;51092;50.874;7.024;2023-02-11T03:16:46;48.95;;;30.30;;
30888;SDS011;51092;50.874;7.024;2023-02-11T03:17:51;49.50;;;32.85;;
30888;SDS011;51092;50.874;7.024;2023-02-11T03:18:57;47.47;;;31.60;;
30888;SDS011;51092;50.874;7.024;2023-02-11T03:20:04;44.60;;;29.10;;
30888;SDS011;51092;50.874;7.024;2023-02-11T03:21:10;52.58;;;30.23;;
30888;SDS011;51092;50.874;7.024;2023-02-11T03:22:15;47.55;;;31.35;;
30888;SDS011;51092;50.874;7.024;2023-02-11T03:23:20;47.22;;;29.85;;
30888;SDS011;51092;50.874;7.024;2023-02-11T03:24:28;45.47;;;30.30;;
30888;SDS011;51092;50.874;7.024;2023-02-11T03:25:33;49.88;;;31.17;;
30888;SDS011;51092;50.874;7.024;2023-02-11T03:26:39;47.38;;;31.58;;
30888;SDS011;51092;50.874;7.024;2023-02-11T03:27:46;47.40;;;29.90;;
30888;SDS011;51092;50.874;7.024;2023-02-11T03:29:03;50.05;;;31.73;;
30888;SDS011;51092;50.874;7.024;2023-02-11T03:30:10;43.42;;;30.35;;
30888;SDS011;51092;50.874;7.024;2023-02-11T03:31:19;46.40;;;29.75;;
30888;SDS011;51092;50.874;7.024;2023-02-11T03:32:28;45.30;;;29.75;;
30888;SDS011;51092;50.874;7.024;2023-02-11T03:33:35;50.17;;;33.50;;
30888;SDS011;51092;50.874;7.024;2023-02-11T03:34:43;51.33;;;31.83;;
30888;SDS011;51092;50.874;7.024;2023-02-11T03:35:52;52.70;;;30.58;;
30888;SDS011;51092;50.874;7.024;2023-02-11T03:36:58;48.78;;;30.63;;
30888;SDS011;51092;50.874;7.024;2023-02-11T03:38:04;46.00;;;28.50;;
30888;SDS011;51092;50.874;7.024;2023-02-11T03:39:10;49.92;;;30.27;;
30888;SDS011;51092;50.874;7.024;2023-02-11T03:40:16;49.90;;;30.73;;
30888;SDS011;51092;50.874;7.024;2023-02-11T03:41:21;43.13;;;29.95;;
30888;SDS011;51092;50.874;7.024;2023-02-11T03:42:26;50.85;;;29.45;;
30888;SDS011;51092;50.874;7.024;2023-02-11T03:43:32;47.75;;;30.35;;
30888;SDS011;51092;50.874;7.024;2023-02-11T03:44:39;52.90;;;30.30;;
30888;SDS011;51092;50.874;7.024;2023-02-11T03:45:43;50.33;;;29.23;;
30888;SDS011;51092;50.874;7.024;2023-02-11T03:46:49;52.92;;;31.83;;
30888;SDS011;51092;50.874;7.024;2023-02-11T03:47:53;44.42;;;29.30;;
30888;SDS011;51092;50.874;7.024;2023-02-11T03:48:59;39.95;;;28.15;;
30888;SDS011;51092;50.874;7.024;2023-02-11T03:50:06;43.08;;;29.27;;
30888;SDS011;51092;50.874;7.024;2023-02-11T03:51:11;48.10;;;30.45;;
30888;SDS011;51092;50.874;7.024;2023-02-11T03:52:14;45.78;;;30.30;;
30888;SDS011;51092;50.874;7.024;2023-02-11T03:53:19;49.78;;;30.17;;
30888;SDS011;51092;50.874;7.024;2023-02-11T03:54:23;46.47;;;30.25;;
30888;SDS011;51092;50.874;7.024;2023-02-11T03:55:33;45.88;;;29.40;;
30888;SDS011;51092;50.874;7.024;2023-02-11T03:56:39;49.33;;;29.75;;
30888;SDS011;51092;50.874;7.024;2023-02-11T03:57:45;43.13;;;29.17;;
30888;SDS011;51092;50.874;7.024;2023-02-11T03:58:47;44.88;;;27.38;;
30888;SDS011;51092;50.874;7.024;2023-02-11T03:59:58;39.78;;;27.80;;
30888;SDS011;51092;50.874;7.024;2023-02-11T04:01:00;44.42;;;27.55;;
30888;SDS011;51092;50.874;7.024;2023-02-11T04:02:02;49.50;;;30.90;;
30888;SDS011;51092;50.874;7.024;2023-02-11T04:03:04;48.42;;;31.05;;
30888;SDS011;51092;50.874;7.024;2023-02-11T04:04:07;44.55;;;29.77;;
30888;SDS011;51092;50.874;7.024;2023-02-11T04:05:10;44.10;;;27.60;;
30888;SDS011;51092;50.874;7.024;2023-02-11T04:06:15;47.15;;;28.70;;
30888;SDS011;51092;50.874;7.024;2023-02-11T04:07:16;43.47;;;28.50;;
30888;SDS011;51092;50.874;7.024;2023-02-11T04:08:19;46.65;;;27.92;;
30888;SDS011;51092;50.874;7.024;2023-02-11T04:09:21;49.30;;;28.90;;
30888;SDS011;51092;50.874;7.024;2023-02-11T04:10:23;42.85;;;26.95;;
30888;SDS011;51092;50.874;7.024;2023-02-11T04:11:26;42.95;;;29.65;;
30888;SDS011;51092;50.874;7.024;2023-02-11T04:12:29;46.92;;;28.15;;
30888;SDS011;51092;50.874;7.024;2023-02-11T04:13:31;45.63;;;29.23;;
30888;SDS011;51092;50.874;7.024;2023-02-11T04:14:33;46.67;;;29.55;;
30888;SDS011;51092;50.874;7.024;2023-02-11T04:15:36;43.15;;;29.13;;
30888;SDS011;51092;50.874;7.024;2023-02-11T04:16:37;43.05;;;29.67;;
30888;SDS011;51092;50.874;7.024;2023-02-11T04:17:40;50.45;;;29.70;;
30888;SDS011;51092;50.874;7.024;2023-02-11T04:18:41;42.10;;;29.35;;
30888;SDS011;51092;50.874;7.024;2023-02-11T04:19:44;52.05;;;30.55;;
30888;SDS011;51092;50.874;7.024;2023-02-11T04:20:47;44.75;;;29.60;;
30888;SDS011;51092;50.874;7.024;2023-02-11T04:21:51;45.53;;;28.48;;
30888;SDS011;51092;50.874;7.024;2023-02-11T04:22:52;44.63;;;29.67;;
30888;SDS011;51092;50.874;7.024;2023-02-11T04:23:55;47.55;;;29.92;;
30888;SDS011;51092;50.874;7.024;2023-02-11T04:24:56;39.75;;;27.83;;
30888;SDS011;51092;50.874;7.024;2023-02-11T04:25:59;48.28;;;31.77;;
30888;SDS011;51092;50.874;7.024;2023-02-11T04:27:00;44.80;;;28.75;;
30888;SDS011;51092;50.874;7.024;2023-02-11T04:28:03;44.33;;;28.60;;
30888;SDS011;51092;50.874;7.024;2023-02-11T04:29:04;46.50;;;28.02;;
30888;SDS011;51092;50.874;7.024;2023-02-11T04:30:07;44.25;;;29.08;;
30888;SDS011;51092;50.874;7.024;2023-02-11T04:31:10;48.30;;;29.40;;
30888;SDS011;51092;50.874;7.024;2023-02-11T04:32:12;44.60;;;28.08;;
30888;SDS011;51092;50.874;7.024;2023-02-11T04:33:14;43.92;;;28.73;;
30888;SDS011;51092;50.874;7.024;2023-02-11T04:34:17;42.00;;;29.35;;
30888;SDS011;51092;50.874;7.024;2023-02-11T04:35:19;42.70;;;28.65;;
30888;SDS011;51092;50.874;7.024;2023-02-11T04:36:22;43.83;;;30.50;;
30888;SDS011;51092;50.874;7.024;2023-02-11T04:37:25;47.72;;;29.10;;
30888;SDS011;51092;50.874;7.024;2023-02-11T04:38:27;51.20;;;30.55;;
30888;SDS011;51092;50.874;7.024;2023-02-11T04:39:29;52.60;;;30.20;;
30888;SDS011;51092;50.874;7.024;2023-02-11T04:40:31;44.08;;;29.20;;
30888;SDS011;51092;50.874;7.024;2023-02-11T04:41:33;43.22;;;26.95;;
30888;SDS011;51092;50.874;7.024;2023-02-11T04:42:35;48.92;;;28.60;;
30888;SDS011;51092;50.874;7.024;2023-02-11T04:43:41;41.78;;;27.85;;
30888;SDS011;51092;50.874;7.024;2023-02-11T04:44:43;42.13;;;29.33;;
30888;SDS011;51092;50.874;7.024;2023-02-11T04:45:45;44.35;;;29.20;;
30888;SDS011;51092;50.874;7.024;2023-02-11T04:46:47;45.55;;;28.38;;
30888;SDS011;51092;50.874;7.024;2023-02-11T04:47:49;45.88;;;28.98;;
30888;SDS011;51092;50.874;7.024;2023-02-11T04:48:51;47.72;;;29.33;;
30888;SDS011;51092;50.874;7.024;2023-02-11T04:49:53;48.80;;;28.50;;
30888;SDS011;51092;50.874;7.024;2023-02-11T04:50:55;41.33;;;28.30;;
30888;SDS011;51092;50.874;7.024;2023-02-11T04:51:59;41.78;;;27.20;;
30888;SDS011;51092;50.874;7.024;2023-02-11T04:53:00;43.10;;;28.05;;
30888;SDS011;51092;50.874;7.024;2023-02-11T04:54:03;42.45;;;27.17;;
30888;SDS011;51092;50.874;7.024;2023-02-11T04:55:05;44.80;;;30.08;;
30888;SDS011;51092;50.874;7.024;2023-02-11T04:56:08;41.05;;;27.67;;
30888;SDS011;51092;50.874;7.024;2023-02-11T04:57:09;44.30;;;27.75;;
30888;SDS011;51092;50.874;7.024;2023-02-11T04:58:12;40.28;;;28.15;;
30888;SDS011;51092;50.874;7.024;2023-02-11T04:59:14;41.22;;;26.92;;
30888;SDS011;51092;50.874;7.024;2023-02-11T05:00:16;47.15;;;28.08;;
30888;SDS011;51092;50.874;7.024;2023-02-11T05:01:18;47.97;;;30.73;;
30888;SDS011;51092;50.874;7.024;2023-02-11T05:02:20;45.17;;;28.55;;
30888;SDS011;51092;50.874;7.024;2023-02-11T05:03:22;41.83;;;28.65;;
30888;SDS011;51092;50.874;7.024;2023-02-11T05:04:24;47.50;;;29.92;;
30888;SDS011;51092;50.874;7.024;2023-02-11T05:05:26;45.40;;;27.35;;
30888;SDS011;51092;50.874;7.024;2023-02-11T05:06:28;44.90;;;26.48;;
30888;SDS011;51092;50.874;7.024;2023-02-11T05:07:31;40.17;;;26.88;;
30888;SDS011;51092;50.874;7.024;2023-02-11T05:08:34;43.40;;;27.67;;
30888;SDS011;51092;50.874;7.024;2023-02-11T05:09:36;45.35;;;28.85;;
30888;SDS011;51092;50.874;7.024;2023-02-11T05:10:38;39.88;;;28.60;;
30888;SDS011;51092;50.874;7.024;2023-02-11T05:11:40;43.08;;;27.67;;
30888;SDS011;51092;50.874;7.024;2023-02-11T05:12:42;41.15;;;26.75;;
30888;SDS011;51092;50.874;7.024;2023-02-11T05:13:44;43.28;;;28.80;;
30888;SDS011;51092;50.874;7.024;2023-02-11T05:14:46;40.28;;;28.75;;
30888;SDS011;51092;50.874;7.024;2023-02-11T05:15:48;48.05;;;27.92;;
30888;SDS011;51092;50.874;7.024;2023-02-11T05:16:50;50.50;;;29.42;;
30888;SDS011;51092;50.874;7.024;2023-02-11T05:17:52;48.75;;;31.02;;
30888;SDS011;51092;50.874;7.024;2023-02-11T05:18:54;44.78;;;27.70;;
30888;SDS011;51092;50.874;7.024;2023-02-11T05:19:56;48.90;;;31.50;;
30888;SDS011;51092;50.874;7.024;2023-02-11T05:20:58;47.35;;;28.38;;
30888;SDS011;51092;50.874;7.024;2023-02-11T05:22:05;49.65;;;28.17;;
30888;SDS011;51092;50.874;7.024;2023-02-11T05:23:09;44.22;;;28.13;;
30888;SDS011;51092;50.874;7.024;2023-02-11T05:24:11;44.65;;;28.33;;
30888;SDS011;51092;50.874;7.024;2023-02-11T05:25:13;59.85;;;29.63;;
30888;SDS011;51092;50.874;7.024;2023-02-11T05:26:15;47.97;;;28.30;;
30888;SDS011;51092;50.874;7.024;2023-02-11T05:27:24;45.20;;;27.85;;
30888;SDS011;51092;50.874;7.024;2023-02-11T05:28:25;44.88;;;27.98;;
30888;SDS011;51092;50.874;7.024;2023-02-11T05:29:28;52.05;;;30.23;;
30888;SDS011;51092;50.874;7.024;2023-02-11T05:30:30;45.80;;;28.08;;
30888;SDS011;51092;50.874;7.024;2023-02-11T05:31:33;47.00;;;31.20;;
30888;SDS011;51092;50.874;7.024;2023-02-11T05:32:34;48.03;;;27.98;;
30888;SDS011;51092;50.874;7.024;2023-02-11T05:33:36;47.63;;;30.17;;
30888;SDS011;51092;50.874;7.024;2023-02-11T05:34:38;43.70;;;27.33;;
30888;SDS011;51092;50.874;7.024;2023-02-11T05:35:40;44.53;;;27.92;;
30888;SDS011;51092;50.874;7.024;2023-02-11T05:36:42;49.67;;;27.98;;
30888;SDS011;51092;50.874;7.024;2023-02-11T05:37:44;40.03;;;25.90;;
30888;SDS011;51092;50.874;7.024;2023-02-11T05:38:47;40.28;;;26.35;;
30888;SDS011;51092;50.874;7.024;2023-02-11T05:39:50;39.22;;;26.27;;
30888;SDS011;51092;50.874;7.024;2023-02-11T05:40:52;38.63;;;26.85;;
30888;SDS011;51092;50.874;7.024;2023-02-11T05:41:55;41.47;;;28.58;;
30888;SDS011;51092;50.874;7.024;2023-02-11T05:42:58;45.60;;;27.83;;
30888;SDS011;51092;50.874;7.024;2023-02-11T05:44:01;46.53;;;27.90;;
30888;SDS011;51092;50.874;7.024;2023-02-11T05:45:03;46.05;;;28.73;;
30888;SDS011;51092;50.874;7.024;2023-02-11T05:46:06;42.40;;;27.95;;
30888;SDS011;51092;50.874;7.024;2023-02-11T05:47:08;37.45;;;26.75;;
30888;SDS011;51092;50.874;7.024;2023-02-11T05:48:10;45.92;;;25.83;;
30888;SDS011;51092;50.874;7.024;2023-02-11T05:49:12;42.92;;;26.67;;
30888;SDS011;51092;50.874;7.024;2023-02-11T05:50:14;45.83;;;28.02;;
30888;SDS011;51092;50.874;7.024;2023-02-11T05:51:16;41.75;;;26.35;;
30888;SDS011;51092;50.874;7.024;2023-02-11T05:52:18;40.55;;;26.70;;
30888;SDS011;51092;50.874;7.024;2023-02-11T05:53:20;44.28;;;28.13;;
30888;SDS011;51092;50.874;7.024;2023-02-11T05:54:26;43.20;;;27.42;;
30888;SDS011;51092;50.874;7.024;2023-02-11T05:55:27;46.08;;;29.00;;
30888;SDS011;51092;50.874;7.024;2023-02-11T05:56:30;44.78;;;27.90;;
30888;SDS011;51092;50.874;7.024;2023-02-11T05:57:31;39.47;;;23.48;;
30888;SDS011;51092;50.874;7.024;2023-02-11T05:58:34;45.13;;;26.70;;
30888;SDS011;51092;50.874;7.024;2023-02-11T05:59:35;41.33;;;26.58;;
30888;SDS011;51092;50.874;7.024;2023-02-11T06:00:38;45.25;;;27.90;;
30888;SDS011;51092;50.874;7.024;2023-02-11T06:01:41;46.40;;;27.08;;
30888;SDS011;51092;50.874;7.024;2023-02-11T06:02:44;47.00;;;28.00;;
30888;SDS011;51092;50.874;7.024;2023-02-11T06:03:47;44.40;;;26.33;;
30888;SDS011;51092;50.874;7.024;2023-02-11T06:04:51;51.30;;;27.33;;
30888;SDS011;51092;50.874;7.024;2023-02-11T06:05:52;41.50;;;27.30;;
30888;SDS011;51092;50.874;7.024;2023-02-11T06:06:57;44.78;;;28.38;;
30888;SDS011;51092;50.874;7.024;2023-02-11T06:07:58;50.28;;;30.33;;
30888;SDS011;51092;50.874;7.024;2023-02-11T06:09:01;46.25;;;27.80;;
30888;SDS011;51092;50.874;7.024;2023-02-11T06:10:07;47.97;;;29.00;;
30888;SDS011;51092;50.874;7.024;2023-02-11T06:11:13;49.67;;;29.00;;
30888;SDS011;51092;50.874;7.024;2023-02-11T06:12:15;44.00;;;27.92;;
30888;SDS011;51092;50.874;7.024;2023-02-11T06:13:17;42.83;;;26.58;;
30888;SDS011;51092;50.874;7.024;2023-02-11T06:14:19;48.45;;;28.50;;
30888;SDS011;51092;50.874;7.024;2023-02-11T06:15:22;49.20;;;26.98;;
30888;SDS011;51092;50.874;7.024;2023-02-11T06:16:23;41.72;;;27.88;;
30888;SDS011;51092;50.874;7.024;2023-02-11T06:17:25;54.38;;;28.58;;
30888;SDS011;51092;50.874;7.024;2023-02-11T06:18:28;47.75;;;29.42;;
30888;SDS011;51092;50.874;7.024;2023-02-11T06:19:31;44.47;;;29.33;;
30888;SDS011;51092;50.874;7.024;2023-02-11T06:20:32;39.97;;;27.00;;
30888;SDS011;51092;50.874;7.024;2023-02-11T06:21:34;55.90;;;32.10;;
30888;SDS011;51092;50.874;7.024;2023-02-11T06:22:36;47.35;;;29.90;;
30888;SDS011;51092;50.874;7.024;2023-02-11T06:23:39;47.25;;;29.30;;
30888;SDS011;51092;50.874;7.024;2023-02-11T06:24:40;48.50;;;27.30;;
30888;SDS011;51092;50.874;7.024;2023-02-11T06:25:44;51.72;;;28.48;;
30888;SDS011;51092;50.874;7.024;2023-02-11T06:26:46;51.65;;;30.95;;